Data for 09/05/2017

Time Sea-Level Adjusted Pressure Absolute Pressure Temperature Relative Humidity Dew Point   
(mb) (inHg) (mb) (inHg) (C) (F) (%) (C) (F)
17:15 1025 30.27 854 25.22 24.2 75.5 20 0.2 32.4
17:20 1025 30.27 854 25.22 24.3 75.7 20 -0.2 31.7
17:25 1025 30.27 854 25.22 24 75.2 20 0 32.1
17:30 1025 30.27 854 25.22 24 75.3 21 0.4 32.8
17:35 1025 30.27 854 25.22 23.8 74.8 21 0.5 32.9
17:40 1025 30.27 854 25.22 23.7 74.7 20 -0.3 31.5
17:45 1025 30.27 854 25.22 23.9 74.9 21 0.2 32.3
17:50 1025 30.27 854 25.22 23.9 75.1 21 0.2 32.4
17:55 1025 30.27 854 25.22 23.6 74.4 21 0.3 32.5
18:00 1025 30.27 854 25.22 23.6 74.5 21 0.4 32.6
18:05 1025 30.27 854 25.22 23.5 74.2 21 0.4 32.6
18:10 1025 30.27 854 25.22 23.4 74.1 21 0.3 32.6
18:15 1025 30.27 854 25.22 23.1 73.5 22 0.3 32.6
18:20 1025 30.27 854 25.22 22.8 73 22 0.4 32.7
18:25 1025 30.27 854 25.22 22.6 72.6 22 0.2 32.4
18:30 1025 30.27 854 25.22 22.4 72.3 23 0.6 33.1
18:35 1025 30.27 854 25.22 22.2 71.9 23 0.1 32.1
18:40 1025 30.27 854 25.22 22 71.7 23 0.2 32.3
18:45 1025 30.27 854 25.22 21.9 71.4 23 0.2 32.4
18:50 1025 30.27 854 25.22 21.8 71.2 24 0.4 32.8
18:55 1025 30.27 854 25.22 21.6 70.8 24 0.5 33
19:00 1025 30.27 854 25.22 21.4 70.5 25 0.6 33.1
19:05 1025 30.27 854 25.22 21.2 70.2 25 0.7 33.2
19:10 1025 30.27 854 25.22 21.1 69.9 25 0.5 32.9
19:15 1025 30.27 854 25.22 20.9 69.7 25 0.5 32.8
19:20 1025 30.27 854 25.22 20.8 69.4 25 0.4 32.7
19:25 1025 30.27 854 25.22 20.6 69 25 0.3 32.5
19:30 1025 30.27 854 25.22 20.4 68.8 26 0.3 32.5
19:35 1025 30.27 854 25.22 20.3 68.5 26 0.4 32.6
19:40 1025 30.27 854 25.22 20.1 68.2 26 0.2 32.4
19:45 1025 30.27 854 25.22 20 68 26 0.2 32.3
19:50 1025 30.27 854 25.22 19.9 67.8 26 0.1 32.1
19:55 1025 30.27 854 25.22 19.8 67.7 26 -0 31.9
20:00 1025 30.27 854 25.22 19.8 67.6 26 0.1 32.2
20:05 1025 30.27 854 25.22 19.6 67.3 26 -0 32
20:10 1025 30.27 854 25.22 19.5 67 27 0 32
20:15 1025 30.27 854 25.22 19.3 66.8 27 -0.1 31.9
20:20 1025 30.27 854 25.22 19.3 66.7 27 -0.2 31.6
20:25 1025 30.27 854 25.22 19.1 66.4 27 -0 32
20:30 1025 30.27 854 25.22 18.9 66.1 28 -0 32
20:35 1025 30.27 854 25.22 18.7 65.7 28 0 32
20:40 1025 30.27 854 25.22 18.6 65.4 28 -0.2 31.7
20:45 1025 30.27 854 25.22 18.4 65.1 28 -0.1 31.8
20:50 1025 30.27 854 25.22 18.2 64.8 28 -0.3 31.4
20:55 1025 30.27 854 25.22 18.2 64.7 28 -0.4 31.2
21:00 1025 30.27 854 25.22 18.1 64.7 28 -0.6 31
21:05 1025 30.27 854 25.22 18.1 64.6 28 -0.5 31.2
21:10 1025 30.27 854 25.22 18 64.4 28 -0.6 31
21:15 1025 30.27 854 25.22 18 64.5 28 -0.6 30.9
21:20 1025 30.27 854 25.22 18 64.4 28 -0.5 31
21:25 1025 30.27 854 25.22 17.9 64.2 28 -0.5 31.1
21:30 1025 30.27 854 25.22 17.8 64 28 -0.6 30.9
21:35 1025 30.27 854 25.22 17.8 64.1 28 -0.6 31
21:40 1025 30.27 854 25.22 17.8 64 29 -0.6 31
21:45 1025 30.27 854 25.22 17.8 64 29 -0.6 31
21:50 1025 30.27 854 25.22 17.7 63.8 29 -0.5 31.1
21:55 1025 30.27 854 25.22 17.5 63.6 29 -0.5 31.1
22:00 1025 30.27 854 25.22 17.4 63.4 29 -0.4 31.2
22:05 1025 30.27 854 25.22 17.3 63.1 30 -0.5 31.1
22:10 1025 30.27 854 25.22 17.2 62.9 30 -0.5 31
22:15 1025 30.27 854 25.22 17.1 62.7 30 -0.6 30.9
22:20 1025 30.27 854 25.22 17 62.5 30 -0.5 31
22:25 1025 30.27 854 25.22 16.9 62.5 30 -0.7 30.8
22:30 1025 30.27 854 25.22 16.9 62.5 30 -0.5 31.1
22:35 1025 30.27 854 25.22 17 62.5 30 -0.5 31
22:40 1025 30.27 854 25.22 17.1 62.8 30 -0.5 31.1
22:45 1025 30.27 854 25.22 17.1 62.8 30 -0.5 31.2
22:50 1025 30.27 854 25.22 17.2 62.9 30 -0.3 31.4
22:55 1025 30.27 854 25.22 17.1 62.8 30 -0.3 31.5
23:00 1025 30.27 854 25.22 17.1 62.8 30 -0.3 31.4
23:05 1025 30.27 854 25.22 16.9 62.5 31 -0.3 31.4
23:10 1025 30.27 854 25.22 16.6 61.9 31 -0.3 31.5
23:15 1025 30.27 854 25.22 16.3 61.4 32 -0.3 31.4
23:20 1025 30.27 854 25.22 16.2 61.1 32 -0.5 31.2
23:25 1025 30.27 854 25.22 15.9 60.7 33 -0.4 31.4
23:30 1025 30.27 854 25.22 15.6 60 33 -0.4 31.2
23:35 1025 30.27 854 25.22 15.3 59.5 33 -0.8 30.5
23:40 1025 30.27 854 25.22 15.2 59.4 33 -1 30.3
23:45 1025 30.27 854 25.22 15.2 59.3 32 -1.1 30
23:50 1025 30.27 854 25.22 15.2 59.3 32 -1.2 29.8
23:55 1025 30.27 854 25.22 15.2 59.3 33 -0.9 30.3
24:00 1025 30.27 854 25.22 15 59 34 -0.6 30.9